Time;durP1;ratioP1;P1;durP2;ratioP2;P2;SDS_P1;SDS_P2;PMS_P1;PMS_P2;Temp;Humidity;BMP_temperature;BMP_pressure;BME280_temperature;BME280_humidity;BME280_pressure;Samples;Min_cycle;Max_cycle;Signal;HPM_P1;HPM_P2
2022/06/29 00:00:43;;;;;;;4.60;0.40;;;;;;;18.83;58.11;100936.59;7390382;19;20047;-75
2022/06/29 00:03:10;;;;;;;4.00;0.50;;;;;;;18.79;58.67;100925.50;7389416;19;20385;-75
2022/06/29 00:05:37;;;;;;;1.58;0.25;;;;;;;18.83;60.46;100925.09;7388657;19;20148;-75
2022/06/29 00:08:05;;;;;;;5.63;0.40;;;;;;;18.84;58.97;100918.75;7390956;19;20014;-75
2022/06/29 00:10:35;;;;;;;2.75;0.20;;;;;;;18.84;58.58;100924.91;7389830;19;20011;-74
2022/06/29 00:13:02;;;;;;;2.28;0.32;;;;;;;18.83;58.59;100931.25;7391634;19;20383;-75
2022/06/29 00:15:29;;;;;;;5.60;0.40;;;;;;;18.83;58.98;100917.91;7388100;19;20255;-75
2022/06/29 00:17:57;;;;;;;6.70;0.30;;;;;;;18.83;59.38;100909.91;7390169;19;20025;-74
2022/06/29 00:20:24;;;;;;;4.82;0.30;;;;;;;18.81;58.92;100914.63;7390334;19;20014;-74
2022/06/29 00:22:51;;;;;;;3.72;1.00;;;;;;;18.82;59.61;100918.13;7391158;19;20010;-74
2022/06/29 00:25:17;;;;;;;4.75;0.20;;;;;;;18.78;58.80;100910.53;7391936;19;20070;-74
2022/06/29 00:27:45;;;;;;;1.27;0.20;;;;;;;18.79;59.14;100900.69;7391760;19;20015;-74
2022/06/29 00:30:13;;;;;;;2.88;0.20;;;;;;;18.78;59.17;100904.38;7390399;19;20351;-74
2022/06/29 00:32:40;;;;;;;6.72;0.40;;;;;;;18.77;59.35;100900.06;7388607;19;20050;-76
2022/06/29 00:35:08;;;;;;;3.72;0.30;;;;;;;18.77;59.30;100910.72;7385831;19;20443;-76
2022/06/29 00:37:35;;;;;;;3.17;0.30;;;;;;;18.77;59.54;100902.72;7391121;19;20019;-75
2022/06/29 00:40:03;;;;;;;3.75;0.60;;;;;;;18.78;59.42;100907.88;7389681;19;20015;-75
2022/06/29 00:42:31;;;;;;;5.70;0.50;;;;;;;18.79;59.42;100903.38;7391310;19;20020;-76
2022/06/29 00:44:58;;;;;;;3.22;0.32;;;;;;;18.80;59.18;100902.31;7388812;19;20025;-75
2022/06/29 00:47:26;;;;;;;1.90;0.30;;;;;;;18.79;59.77;100904.16;7389988;19;20025;-75
2022/06/29 00:49:53;;;;;;;1.70;0.28;;;;;;;18.79;59.74;100911.34;7380878;19;20025;-74
2022/06/29 00:52:23;;;;;;;6.28;1.00;;;;;;;18.82;61.39;100910.13;7389074;19;21359;-74
2022/06/29 00:54:56;;;;;;;6.70;0.30;;;;;;;18.80;59.54;100904.97;7387443;19;20010;-75
2022/06/29 00:57:28;;;;;;;1.70;0.22;;;;;;;18.78;59.83;100905.19;7390365;19;20420;-75
2022/06/29 00:59:58;;;;;;;3.42;0.20;;;;;;;18.76;59.85;100907.25;7388402;19;20045;-74
2022/06/29 01:02:29;;;;;;;1.73;0.17;;;;;;;18.75;59.98;100915.44;7389912;19;20049;-75
2022/06/29 01:04:56;;;;;;;1.63;0.30;;;;;;;18.74;59.69;100905.81;7385547;19;20479;-75
2022/06/29 01:07:26;;;;;;;4.00;0.30;;;;;;;18.71;60.19;100903.53;7384922;19;20023;-75
2022/06/29 01:09:53;;;;;;;3.80;0.28;;;;;;;18.69;60.08;100903.75;7386424;19;20010;-74
2022/06/29 01:12:21;;;;;;;2.67;0.22;;;;;;;18.68;60.24;100902.13;7387349;19;20015;-73
2022/06/29 01:14:49;;;;;;;4.47;0.22;;;;;;;18.67;60.42;100904.97;7382694;19;20487;-73
2022/06/29 01:17:17;;;;;;;0.50;0.20;;;;;;;18.63;60.96;100909.91;7387485;19;20108;-74
2022/06/29 01:19:44;;;;;;;1.55;0.30;;;;;;;18.63;61.21;100909.09;7385498;19;20046;-74
2022/06/29 01:22:13;;;;;;;3.90;0.35;;;;;;;18.59;61.66;100905.97;7385034;19;20372;-75
2022/06/29 01:24:47;;;;;;;1.42;0.30;;;;;;;18.57;61.69;100904.56;7385698;19;20933;-76
2022/06/29 01:27:20;;;;;;;1.50;0.30;;;;;;;18.54;62.03;100910.31;7384856;19;20090;-74
2022/06/29 01:29:47;;;;;;;2.17;0.20;;;;;;;18.52;62.41;100906.97;7382733;19;20014;-75
2022/06/29 01:32:14;;;;;;;2.20;0.30;;;;;;;18.49;62.50;100910.84;7386211;19;20011;-74
2022/06/29 01:34:45;;;;;;;2.78;0.55;;;;;;;18.48;63.24;100903.09;7383458;19;20017;-74
2022/06/29 01:37:16;;;;;;;2.95;0.35;;;;;;;18.48;63.21;100903.91;7383303;19;20665;-75
2022/06/29 01:39:43;;;;;;;2.70;0.75;;;;;;;18.47;63.54;100896.09;7385448;19;20012;-74
2022/06/29 01:42:11;;;;;;;2.72;0.20;;;;;;;18.46;63.60;100897.94;7385849;19;20022;-75
2022/06/29 01:44:42;;;;;;;4.05;0.30;;;;;;;18.44;63.85;100896.53;7384642;19;20010;-75
2022/06/29 01:47:09;;;;;;;3.35;0.30;;;;;;;18.40;64.22;100893.41;7385953;19;20014;-74
2022/06/29 01:49:36;;;;;;;2.00;0.25;;;;;;;18.39;64.39;100886.44;7384956;19;20120;-76
2022/06/29 01:52:03;;;;;;;5.32;0.50;;;;;;;18.41;65.09;100894.25;7384362;19;20014;-74
2022/06/29 01:54:32;;;;;;;3.95;0.32;;;;;;;18.39;64.67;100891.78;7384977;19;20623;-75
2022/06/29 01:57:01;;;;;;;5.15;0.50;;;;;;;18.37;64.96;100885.84;7382848;19;20502;-75
2022/06/29 01:59:28;;;;;;;3.67;0.75;;;;;;;18.37;64.68;100891.19;7385852;19;20463;-75
2022/06/29 02:01:54;;;;;;;4.00;0.30;;;;;;;18.36;65.21;100884.19;7384548;19;20011;-74
2022/06/29 02:04:21;;;;;;;4.22;0.30;;;;;;;18.34;65.01;100880.91;7383202;19;20041;-75
2022/06/29 02:06:48;;;;;;;3.72;0.65;;;;;;;18.33;65.57;100876.63;7228470;19;2998358;-75
2022/06/29 02:09:15;;;;;;;2.33;0.30;;;;;;;18.33;65.35;100876.63;7386336;19;20353;-76
2022/06/29 02:11:42;;;;;;;4.78;0.30;;;;;;;18.31;65.64;100873.31;7385204;19;20070;-75
2022/06/29 02:14:09;;;;;;;1.83;0.28;;;;;;;18.28;65.77;100876.41;7387741;19;20018;-74
2022/06/29 02:16:36;;;;;;;3.28;0.60;;;;;;;18.26;65.69;100876.59;7387340;19;20069;-74
2022/06/29 02:19:03;;;;;;;1.30;0.30;;;;;;;18.26;66.29;100873.94;7385788;19;20022;-74
2022/06/29 02:21:31;;;;;;;8.70;3.72;;;;;;;18.26;66.63;100870.44;7385424;19;20022;-75
2022/06/29 02:23:58;;;;;;;2.85;0.28;;;;;;;18.24;66.54;100873.31;7387121;19;20018;-74
2022/06/29 02:26:25;;;;;;;1.83;0.20;;;;;;;18.19;66.26;100864.28;7386329;19;20011;-74
2022/06/29 02:28:52;;;;;;;3.85;0.22;;;;;;;18.21;66.30;100867.56;7385443;19;20014;-74
2022/06/29 02:36:49;;;;;;;1.02;0.20;;;;;;;18.21;66.92;100864.91;7383910;19;20110;-73
2022/06/29 02:39:17;;;;;;;3.72;0.85;;;;;;;18.24;67.75;100867.97;7386261;19;20018;-74
2022/06/29 02:41:44;;;;;;;1.73;0.20;;;;;;;18.25;67.40;100861.63;7384291;19;20103;-74
2022/06/29 02:44:10;;;;;;;5.47;0.40;;;;;;;18.24;67.80;100867.16;7385619;19;20032;-74
2022/06/29 02:46:37;;;;;;;2.03;0.73;;;;;;;18.24;67.71;100852.00;7384908;19;20024;-74
2022/06/29 02:49:04;;;;;;;0.63;0.25;;;;;;;18.25;67.61;100858.13;7384961;19;20265;-75
2022/06/29 02:51:31;;;;;;;2.72;0.47;;;;;;;18.22;68.01;100853.22;7384151;19;20006;-75
2022/06/29 02:53:58;;;;;;;4.22;0.22;;;;;;;18.20;68.29;100855.25;7386048;19;20086;-75
2022/06/29 02:56:25;;;;;;;3.70;0.30;;;;;;;18.23;68.83;100853.03;7384851;19;20149;-74
2022/06/29 02:58:52;;;;;;;4.53;0.60;;;;;;;18.23;68.84;100847.72;7382604;19;20010;-75
2022/06/29 03:01:19;;;;;;;2.63;0.22;;;;;;;18.25;68.33;100850.16;7384316;19;20014;-74
2022/06/29 03:03:45;;;;;;;4.47;0.40;;;;;;;18.25;68.77;100850.16;7382725;19;20038;-75
2022/06/29 03:06:13;;;;;;;4.35;0.30;;;;;;;18.24;68.84;100845.84;7382763;19;20017;-74
2022/06/29 03:08:39;;;;;;;2.13;0.40;;;;;;;18.23;68.96;100842.38;7384575;19;20647;-75
2022/06/29 03:11:06;;;;;;;4.03;0.30;;;;;;;18.21;68.86;100836.41;7385581;19;20070;-73
2022/06/29 03:13:33;;;;;;;1.88;0.40;;;;;;;18.23;69.38;100833.56;7385460;19;20020;-74
2022/06/29 03:16:00;;;;;;;2.05;0.30;;;;;;;18.24;69.35;100816.53;7384085;19;20014;-75
2022/06/29 03:18:27;;;;;;;2.50;0.20;;;;;;;18.24;69.33;100819.19;7383030;19;20077;-74
2022/06/29 03:20:54;;;;;;;2.15;0.10;;;;;;;18.24;69.44;100817.34;7383403;19;20019;-74
2022/06/29 03:23:21;;;;;;;2.25;0.50;;;;;;;18.23;69.55;100818.41;7382815;19;20471;-74
2022/06/29 03:25:48;;;;;;;4.68;1.02;;;;;;;18.22;70.04;100818.59;7384089;19;20039;-75
2022/06/29 03:28:15;;;;;;;5.07;2.30;;;;;;;18.23;70.60;100813.09;7382508;19;20010;-74
2022/06/29 03:30:42;;;;;;;3.05;0.30;;;;;;;18.26;70.39;100811.84;7382395;19;20013;-75
2022/06/29 03:33:09;;;;;;;2.25;0.30;;;;;;;18.25;69.98;100810.19;7379900;19;20019;-74
2022/06/29 03:35:35;;;;;;;2.50;0.28;;;;;;;18.25;69.78;100811.00;7380857;19;20017;-76
2022/06/29 03:38:03;;;;;;;2.53;0.28;;;;;;;18.24;70.00;100801.38;7384307;19;20019;-74
2022/06/29 03:40:30;;;;;;;1.38;0.20;;;;;;;18.24;70.02;100804.03;7383954;19;20010;-74
2022/06/29 03:42:57;;;;;;;1.95;0.25;;;;;;;18.24;70.23;100808.53;7385170;19;20118;-74
2022/06/29 03:45:23;;;;;;;4.45;0.80;;;;;;;18.23;71.01;100804.25;7381254;19;20371;-74
2022/06/29 03:47:50;;;;;;;5.63;0.30;;;;;;;18.24;71.20;100793.38;7384319;19;20352;-74
2022/06/29 03:50:18;;;;;;;5.07;0.40;;;;;;;18.27;71.75;100797.50;7380677;19;20021;-75
2022/06/29 03:52:45;;;;;;;2.08;0.20;;;;;;;18.26;71.99;100796.69;7383454;19;20362;-75
2022/06/29 03:55:12;;;;;;;4.32;0.32;;;;;;;18.28;72.04;100793.81;7383130;19;20017;-74
2022/06/29 03:57:39;;;;;;;3.25;0.20;;;;;;;18.27;71.86;100798.31;7385893;19;20210;-74
2022/06/29 04:00:07;;;;;;;1.60;0.17;;;;;;;18.25;71.49;100795.03;7383048;19;20027;-74
2022/06/29 04:02:34;;;;;;;5.95;1.13;;;;;;;18.26;71.94;100794.00;7381671;19;20547;-75
2022/06/29 04:05:02;;;;;;;2.58;0.30;;;;;;;18.26;71.78;100795.84;7383598;19;20035;-74
2022/06/29 04:07:29;;;;;;;1.55;0.20;;;;;;;18.26;71.82;100798.53;7385157;19;20014;-75
2022/06/29 04:09:59;;;;;;;3.08;0.20;;;;;;;18.25;71.25;100797.69;7382078;19;20022;-75
2022/06/29 04:12:30;;;;;;;2.55;0.25;;;;;;;18.23;71.17;100790.94;7385147;19;20018;-74
2022/06/29 04:14:58;;;;;;;3.78;0.25;;;;;;;18.21;71.58;100801.78;7382523;19;20342;-75
2022/06/29 04:17:25;;;;;;;2.83;0.20;;;;;;;18.21;71.93;100798.31;7385298;19;20026;-75
2022/06/29 04:19:52;;;;;;;6.80;1.83;;;;;;;18.20;72.02;100802.00;7382780;19;20026;-74
2022/06/29 04:22:20;;;;;;;4.22;0.30;;;;;;;18.22;71.78;100794.63;7382399;19;20049;-74
2022/06/29 04:24:47;;;;;;;5.43;0.30;;;;;;;18.21;71.85;100795.66;7383822;19;20017;-74
2022/06/29 04:27:14;;;;;;;2.00;0.22;;;;;;;18.21;71.79;100799.13;7384584;19;20014;-74
2022/06/29 04:29:41;;;;;;;3.42;0.30;;;;;;;18.21;71.85;100793.81;7383092;19;20099;-74
2022/06/29 04:32:09;;;;;;;1.88;0.43;;;;;;;18.21;72.39;100801.78;7382901;19;20089;-74
2022/06/29 04:34:39;;;;;;;1.15;0.20;;;;;;;18.21;72.15;100792.97;7385980;19;20010;-74
2022/06/29 04:37:06;;;;;;;2.50;0.50;;;;;;;18.21;72.48;100793.81;7385027;19;20006;-75
2022/06/29 04:39:33;;;;;;;3.15;0.30;;;;;;;18.23;72.70;100790.94;7391127;19;20563;-75
2022/06/29 04:42:00;;;;;;;3.85;0.20;;;;;;;18.23;72.25;100794.44;7390680;19;20014;-75
2022/06/29 04:44:27;;;;;;;3.40;0.20;;;;;;;18.23;72.29;100783.78;7389177;19;20090;-76
2022/06/29 04:46:54;;;;;;;2.88;0.20;;;;;;;18.24;72.69;100785.38;7390275;19;20100;-75
2022/06/29 04:49:22;;;;;;;1.95;0.20;;;;;;;18.24;72.58;100787.22;7385105;19;20011;-75
2022/06/29 04:51:49;;;;;;;3.30;0.30;;;;;;;18.22;72.55;100786.63;7385476;19;20036;-75
2022/06/29 04:54:16;;;;;;;2.08;0.30;;;;;;;18.25;73.38;100795.03;7389290;19;20094;-76
2022/06/29 04:56:43;;;;;;;1.80;0.20;;;;;;;18.27;73.02;100785.00;7386751;19;20025;-75
2022/06/29 04:59:10;;;;;;;3.55;0.20;;;;;;;18.29;72.72;100785.59;7389916;19;20022;-76
2022/06/29 05:01:37;;;;;;;2.80;0.20;;;;;;;18.29;72.39;100787.44;7388347;19;20035;-76
2022/06/29 05:04:04;;;;;;;4.95;0.20;;;;;;;18.27;72.96;100786.84;7390686;19;20031;-74
2022/06/29 05:06:31;;;;;;;5.53;0.50;;;;;;;18.27;72.92;100787.66;7385752;19;20088;-77
2022/06/29 05:08:58;;;;;;;3.47;0.30;;;;;;;18.27;72.94;100781.50;7390181;19;20013;-75
2022/06/29 05:11:26;;;;;;;2.33;0.65;;;;;;;18.28;73.77;100789.31;7388893;19;20369;-75
2022/06/29 05:13:53;;;;;;;3.97;0.30;;;;;;;18.31;73.55;100788.88;7390367;19;20021;-75
2022/06/29 05:16:20;;;;;;;5.18;0.30;;;;;;;18.32;73.00;100787.88;7386321;19;20029;-75
2022/06/29 05:18:48;;;;;;;2.97;0.28;;;;;;;18.32;72.90;100782.53;7389554;19;20521;-75
2022/06/29 05:21:18;;;;;;;3.63;0.38;;;;;;;18.30;73.23;100783.75;7389200;19;20015;-75
2022/06/29 05:23:45;;;;;;;6.03;0.30;;;;;;;18.32;73.57;100784.38;7388764;19;20074;-75
2022/06/29 05:26:12;;;;;;;2.95;0.30;;;;;;;18.32;73.38;100779.88;7390999;19;20077;-75
2022/06/29 05:28:39;;;;;;;5.53;0.90;;;;;;;18.36;74.04;100778.44;7389955;19;20695;-74
2022/06/29 05:31:07;;;;;;;5.00;0.32;;;;;;;18.39;73.67;100774.53;7389892;19;20033;-74
2022/06/29 05:33:36;;;;;;;4.70;0.30;;;;;;;18.39;73.51;100764.69;7389820;19;20026;-75
2022/06/29 05:36:08;;;;;;;4.63;0.30;;;;;;;18.38;73.58;100760.41;7384541;19;20006;-75
2022/06/29 05:38:36;;;;;;;1.95;0.30;;;;;;;18.38;73.57;100759.59;7387824;19;20014;-75
2022/06/29 05:41:04;;;;;;;2.92;0.20;;;;;;;18.37;73.57;100757.94;7386845;19;20059;-74
2022/06/29 05:43:32;;;;;;;1.40;0.20;;;;;;;18.38;73.84;100755.09;7388741;19;20025;-75
2022/06/29 05:45:59;;;;;;;5.95;0.35;;;;;;;18.41;74.16;100761.00;7385164;19;20019;-74
2022/06/29 05:48:26;;;;;;;4.05;0.30;;;;;;;18.41;74.34;100771.66;7387403;19;20010;-76
2022/06/29 05:50:53;;;;;;;2.75;0.20;;;;;;;18.42;74.29;100762.66;7386466;19;20122;-74
2022/06/29 05:53:20;;;;;;;4.82;0.20;;;;;;;18.41;74.49;100771.66;7386686;19;20017;-75
2022/06/29 05:55:47;;;;;;;4.43;0.20;;;;;;;18.35;74.55;100770.66;7388791;19;20035;-74
2022/06/29 05:58:18;;;;;;;5.40;0.55;;;;;;;18.33;74.63;100772.72;7389217;19;20363;-76
2022/06/29 06:00:47;;;;;;;2.40;0.20;;;;;;;18.33;74.90;100770.03;7385854;19;20025;-75
2022/06/29 06:03:15;;;;;;;5.55;0.40;;;;;;;18.32;75.54;100782.53;7386547;19;20013;-75
2022/06/29 06:05:43;;;;;;;6.82;0.30;;;;;;;18.35;76.23;100773.31;7382354;19;20018;-76
2022/06/29 06:08:13;;;;;;;4.75;0.88;;;;;;;18.36;75.98;100774.94;7383898;19;20025;-76
2022/06/29 06:10:40;;;;;;;3.55;0.30;;;;;;;18.37;75.96;100769.44;7386560;19;20451;-75
2022/06/29 06:13:08;;;;;;;1.17;0.20;;;;;;;18.37;75.84;100760.63;7388535;19;20021;-75
2022/06/29 06:15:35;;;;;;;3.13;0.50;;;;;;;18.39;76.13;100767.34;7384863;19;20758;-75
2022/06/29 06:18:04;;;;;;;2.10;0.40;;;;;;;18.41;76.39;100769.00;7388501;19;20032;-75
2022/06/29 06:20:37;;;;;;;2.40;0.40;;;;;;;18.46;78.23;100771.88;7386414;19;20425;-74
2022/06/29 06:23:04;;;;;;;3.53;0.40;;;;;;;18.46;77.41;100775.38;7387603;19;20301;-74
2022/06/29 06:25:33;;;;;;;3.28;0.40;;;;;;;18.46;76.31;100775.38;7387406;19;20011;-75
2022/06/29 06:28:00;;;;;;;3.33;0.28;;;;;;;18.43;76.46;100782.97;7387871;19;20014;-75
2022/06/29 06:30:28;;;;;;;4.07;0.45;;;;;;;18.43;76.66;100766.97;7387109;19;20031;-75
2022/06/29 06:32:55;;;;;;;3.05;0.22;;;;;;;18.43;76.67;100775.78;7383587;19;20018;-76
2022/06/29 06:35:22;;;;;;;2.70;0.20;;;;;;;18.43;76.96;100772.28;7382479;19;20024;-76
2022/06/29 06:37:51;;;;;;;2.25;0.40;;;;;;;18.45;76.81;100775.56;7384147;19;20022;-76
2022/06/29 06:43:04;;;;;;;2.33;0.40;;;;;;;18.49;77.15;100772.28;7383598;19;20483;-74
2022/06/29 06:45:31;;;;;;;3.80;1.02;;;;;;;18.50;77.26;100779.25;7384925;19;20451;-74
2022/06/29 06:47:58;;;;;;;9.82;1.05;;;;;;;18.53;77.79;100783.38;7386388;19;20757;-74
2022/06/29 06:50:25;;;;;;;5.97;1.42;;;;;;;18.57;77.65;100782.78;7382542;19;20049;-74
2022/06/29 06:52:52;;;;;;;23.20;5.97;;;;;;;18.58;77.75;100775.59;7384277;19;20014;-74
2022/06/29 06:55:19;;;;;;;6.05;0.80;;;;;;;18.62;78.61;100768.81;7382031;19;20010;-74
2022/06/29 06:57:46;;;;;;;4.47;0.63;;;;;;;18.62;78.78;100774.97;7381602;19;20454;-75
2022/06/29 07:00:13;;;;;;;64.70;6.45;;;;;;;18.64;78.22;100782.78;7383437;19;20024;-76
2022/06/29 07:02:40;;;;;;;16.38;3.13;;;;;;;18.65;78.84;100777.22;7382208;19;20486;-75
2022/06/29 07:05:07;;;;;;;10.60;1.40;;;;;;;18.67;78.53;100775.19;7380787;19;20086;-75
2022/06/29 07:07:35;;;;;;;8.90;0.60;;;;;;;18.70;78.50;100787.25;7383618;19;20011;-76
2022/06/29 07:10:03;;;;;;;4.20;0.57;;;;;;;18.69;78.15;100789.09;7383775;19;20014;-75
2022/06/29 07:12:29;;;;;;;4.10;0.60;;;;;;;18.74;79.25;100786.63;7385684;19;20506;-78
2022/06/29 07:14:56;;;;;;;9.50;1.00;;;;;;;18.77;78.95;100780.91;7385202;19;20014;-77
2022/06/29 07:17:24;;;;;;;17.15;1.27;;;;;;;18.80;78.75;100780.47;7383102;19;20021;-77
2022/06/29 07:19:51;;;;;;;5.35;0.40;;;;;;;18.85;77.94;100785.19;7381032;19;20367;-77
2022/06/29 07:22:18;;;;;;;5.90;0.90;;;;;;;18.91;78.67;100783.53;7382276;19;20385;-76
2022/06/29 07:24:52;;;;;;;4.13;0.40;;;;;;;18.90;78.46;100788.06;7383538;19;20402;-75
2022/06/29 07:27:20;;;;;;;6.35;1.27;;;;;;;18.90;78.01;100784.56;7384721;19;20019;-74
2022/06/29 07:29:52;;;;;;;1.95;0.70;;;;;;;18.87;78.19;100775.16;7385484;19;20534;-77
2022/06/29 07:32:20;;;;;;;7.55;1.20;;;;;;;18.88;78.54;100776.78;7383255;19;20018;-74
2022/06/29 07:34:47;;;;;;;4.97;0.50;;;;;;;18.89;78.92;100777.63;7380782;19;20010;-75
2022/06/29 07:37:15;;;;;;;3.20;0.50;;;;;;;18.90;78.90;100773.91;7379502;19;20018;-75
2022/06/29 07:39:42;;;;;;;4.60;0.80;;;;;;;18.88;78.63;100776.78;7383126;19;20014;-76
2022/06/29 07:42:31;;;;;;;2.95;0.38;;;;;;;18.93;80.71;100776.16;7381456;19;20018;-75
2022/06/29 07:44:58;;;;;;;3.50;1.02;;;;;;;19.01;83.77;100767.91;7380731;19;20538;-76
2022/06/29 07:47:25;;;;;;;8.32;3.55;;;;;;;19.00;82.51;100775.09;7384347;19;20531;-74
2022/06/29 07:49:52;;;;;;;9.82;3.60;;;;;;;18.96;81.21;100775.72;7381536;19;20011;-77
2022/06/29 07:52:19;;;;;;;5.43;2.00;;;;;;;18.90;80.54;100772.06;7383149;19;20444;-74
2022/06/29 07:54:46;;;;;;;3.42;1.70;;;;;;;18.88;80.43;100759.97;7384049;19;20010;-75
2022/06/29 07:57:12;;;;;;;5.55;0.95;;;;;;;18.89;80.66;100759.78;7379389;19;20086;-75
2022/06/29 07:59:41;;;;;;;7.97;2.45;;;;;;;18.89;80.70;100767.78;7383558;19;20503;-75
2022/06/29 08:02:08;;;;;;;8.07;2.47;;;;;;;18.90;81.00;100773.91;7383260;19;20226;-75
2022/06/29 08:04:35;;;;;;;11.05;4.00;;;;;;;18.89;80.37;100774.94;7382175;19;20097;-75
2022/06/29 08:07:22;;;;;;;6.78;1.27;;;;;;;18.90;81.08;100782.72;7380937;19;20007;-75
2022/06/29 08:09:49;;;;;;;4.82;0.40;;;;;;;18.90;81.10;100782.72;7387834;19;20015;-74
2022/06/29 08:12:16;;;;;;;2.60;0.40;;;;;;;18.88;80.75;100782.13;7392157;19;20456;-76
2022/06/29 08:14:44;;;;;;;2.95;0.50;;;;;;;18.86;80.32;100783.34;7391339;19;20082;-74
2022/06/29 08:17:11;;;;;;;5.82;0.40;;;;;;;18.87;80.96;100782.31;7387454;19;20010;-75
2022/06/29 08:19:38;;;;;;;9.88;4.15;;;;;;;18.88;81.90;100782.13;7386415;19;20025;-76
2022/06/29 08:22:05;;;;;;;8.02;1.63;;;;;;;18.89;83.37;100778.44;7390556;19;20022;-76
2022/06/29 08:24:32;;;;;;;4.97;0.82;;;;;;;18.89;84.73;100777.63;7392588;19;20107;-77
2022/06/29 08:27:00;;;;;;;6.43;1.38;;;;;;;18.90;86.01;100781.91;7388186;19;20360;-75
2022/06/29 08:29:48;;;;;;;5.35;0.95;;;;;;;18.86;87.30;100792.16;7387630;19;20310;-75
2022/06/29 08:32:15;;;;;;;4.88;1.50;;;;;;;18.83;87.61;100795.25;7387927;19;20078;-75
2022/06/29 08:34:42;;;;;;;5.85;1.17;;;;;;;18.80;88.55;100793.00;7384564;19;20010;-76
2022/06/29 08:37:09;;;;;;;10.15;2.38;;;;;;;18.74;88.96;100794.63;7385232;19;20010;-76
2022/06/29 08:39:36;;;;;;;6.80;1.50;;;;;;;18.74;89.56;100791.19;7391368;19;20479;-75
2022/06/29 08:42:05;;;;;;;2.83;1.30;;;;;;;18.68;89.85;100792.81;7390403;19;20011;-75
2022/06/29 08:44:33;;;;;;;6.35;1.05;;;;;;;18.60;90.01;100795.69;7391696;19;20025;-75
2022/06/29 08:47:04;;;;;;;10.73;4.03;;;;;;;18.62;91.53;100798.97;7389571;19;20674;-75
2022/06/29 08:49:32;;;;;;;5.68;1.05;;;;;;;18.61;91.99;100791.16;7390149;19;20492;-75
2022/06/29 08:52:03;;;;;;;3.38;0.60;;;;;;;18.53;91.09;100770.88;7386322;19;20479;-75
2022/06/29 08:54:31;;;;;;;8.82;1.02;;;;;;;18.52;91.19;100741.75;7390757;19;20767;-74
2022/06/29 08:56:58;;;;;;;10.60;1.10;;;;;;;18.50;91.56;100739.28;7389329;19;20426;-76
2022/06/29 08:59:26;;;;;;;5.90;0.98;;;;;;;18.46;92.38;100754.03;7391185;19;20378;-75
2022/06/29 09:02:13;;;;;;;8.77;1.55;;;;;;;18.43;92.49;100750.97;7387021;19;20021;-74
2022/06/29 09:04:40;;;;;;;7.85;0.90;;;;;;;18.38;92.63;100759.59;7388356;19;20902;-75
2022/06/29 09:07:07;;;;;;;7.70;0.82;;;;;;;18.35;93.05;100755.47;7386687;19;20411;-75
2022/06/29 09:10:00;;;;;;;7.78;1.05;;;;;;;18.33;93.68;100762.88;7387405;19;20018;-74
2022/06/29 09:12:34;;;;;;;10.98;5.20;;;;;;;18.32;94.47;100774.56;7389943;19;20014;-75
2022/06/29 09:15:03;;;;;;;214.45;19.13;;;;;;;18.40;96.83;100765.53;7389021;19;20438;-74
2022/06/29 09:17:32;;;;;;;6.97;1.95;;;;;;;18.45;97.90;100768.38;7387474;19;20025;-76
2022/06/29 09:19:59;;;;;;;58.15;11.25;;;;;;;18.46;97.80;100769.22;7387237;19;20122;-75
2022/06/29 09:22:55;;;;;;;6.18;1.50;;;;;;;18.45;98.05;100775.56;7389091;19;20336;-75
2022/06/29 09:25:27;;;;;;;12.95;4.55;;;;;;;18.41;97.61;100777.81;7386381;19;20443;-75
2022/06/29 09:27:55;;;;;;;41.13;12.00;;;;;;;18.42;98.12;100774.13;7390829;19;20580;-75
2022/06/29 09:30:36;;;;;;;9.65;3.90;;;;;;;18.37;96.64;100780.09;7388165;19;20011;-75
2022/06/29 09:33:07;;;;;;;38.50;6.45;;;;;;;18.35;94.71;100776.78;7387013;19;20579;-75
2022/06/29 09:35:36;;;;;;;16.33;2.33;;;;;;;18.35;93.14;100775.97;7386062;19;20018;-74
2022/06/29 09:38:22;;;;;;;50.15;8.00;;;;;;;18.35;92.39;100781.31;7385611;19;20078;-73
2022/06/29 09:41:03;;;;;;;18.25;3.88;;;;;;;18.41;94.47;100769.84;7386802;19;20018;-75
2022/06/29 09:43:32;;;;;;;18.85;8.27;;;;;;;18.45;94.28;100778.22;7389063;19;20332;-75
2022/06/29 09:46:00;;;;;;;9.20;2.53;;;;;;;18.48;93.81;100785.81;7387201;19;20010;-75
2022/06/29 09:48:29;;;;;;;3.80;1.63;;;;;;;18.51;93.60;100778.22;7389162;19;20018;-75
2022/06/29 09:50:57;;;;;;;12.32;1.77;;;;;;;18.51;92.60;100783.56;7386009;19;20082;-75
2022/06/29 09:53:39;;;;;;;2.60;0.50;;;;;;;18.49;91.39;100777.59;7388827;19;20467;-75
2022/06/29 09:56:12;;;;;;;3.70;0.77;;;;;;;18.51;91.69;100780.91;7384810;19;20142;-75
2022/06/29 09:58:47;;;;;;;10.38;5.60;;;;;;;18.55;92.14;100774.16;7389019;19;20014;-75
2022/06/29 10:04:03;;;;;;;5.28;1.20;;;;;;;18.58;90.53;100789.75;7385288;19;20030;-75
2022/06/29 10:06:30;;;;;;;6.00;0.60;;;;;;;18.60;88.93;100790.34;7331865;19;20006;-74
2022/06/29 10:09:02;;;;;;;4.10;0.55;;;;;;;18.65;88.25;100787.06;7383493;19;20483;-74
2022/06/29 10:14:58;;;;;;;9.73;3.22;;;;;;;18.65;86.79;100801.22;7386267;19;20014;-75
2022/06/29 10:17:42;;;;;;;3.53;0.93;;;;;;;18.68;87.96;100794.66;7386196;19;20074;-77
2022/06/29 10:20:09;;;;;;;5.90;2.30;;;;;;;18.72;89.03;100796.72;7383217;19;20018;-76
2022/06/29 10:22:36;;;;;;;4.22;0.40;;;;;;;18.72;89.12;100790.56;7384885;19;20020;-77
2022/06/29 10:25:09;;;;;;;3.05;0.60;;;;;;;18.76;89.64;100787.25;7385591;19;20027;-76
2022/06/29 10:27:36;;;;;;;;;;;;;;;18.80;89.31;100788.47;7387968;19;20410;-76
2022/06/29 10:30:23;;;;;;;4.68;0.50;;;;;;;18.86;90.15;100778.00;7385583;19;19914;-76
2022/06/29 10:32:50;;;;;;;8.30;3.78;;;;;;;18.91;90.65;100786.22;7384672;19;20023;-75
2022/06/29 10:35:18;;;;;;;5.40;1.90;;;;;;;18.94;90.93;100786.63;7381914;19;20076;-77
2022/06/29 10:37:53;;;;;;;4.50;0.90;;;;;;;18.94;90.40;100789.28;7385485;19;20016;-77
2022/06/29 10:40:24;;;;;;;3.47;0.60;;;;;;;18.97;89.77;100788.03;7385085;19;20022;-76
2022/06/29 10:43:10;;;;;;;3.97;0.40;;;;;;;18.95;88.54;100790.09;7386654;19;20027;-77
2022/06/29 10:45:42;;;;;;;3.53;0.40;;;;;;;18.89;86.04;100789.09;7384658;19;20550;-76
2022/06/29 10:48:12;;;;;;;2.95;0.85;;;;;;;18.88;84.63;100794.63;7386490;19;20022;-77
2022/06/29 10:50:42;;;;;;;3.90;0.60;;;;;;;18.87;85.34;100801.00;7363753;19;21173;-77
2022/06/29 10:53:11;;;;;;;10.07;1.45;;;;;;;18.92;86.85;100798.53;7384541;19;20023;-76
2022/06/29 10:55:44;;;;;;;4.18;0.90;;;;;;;18.93;86.47;100801.00;7384523;19;20010;-76
2022/06/29 10:58:11;;;;;;;4.57;0.73;;;;;;;18.91;85.99;100805.69;7384105;19;20013;-76
2022/06/29 11:00:43;;;;;;;4.53;0.55;;;;;;;18.96;85.52;100795.22;7384021;19;20022;-77
2022/06/29 11:03:16;;;;;;;3.17;0.50;;;;;;;19.01;84.72;100806.09;7381448;19;20014;-76
2022/06/29 11:15:39;;;;;;;3.45;0.70;;;;;;;19.12;82.75;100810.78;7385709;19;20010;-77
2022/06/29 11:16:55;;;;;;;8.30;0.63;;;;;;;19.15;81.29;100810.34;7382664;19;20006;-77
2022/06/29 11:19:32;;;;;;;5.97;0.60;;;;;;;19.16;80.94;100804.00;7383771;19;20021;-77
2022/06/29 11:22:11;;;;;;;7.55;1.20;;;;;;;19.21;81.23;100808.72;7379566;19;20022;-77
2022/06/29 11:24:57;;;;;;;5.90;0.57;;;;;;;19.27;81.02;100801.72;7381305;19;20039;-77
2022/06/29 11:27:38;;;;;;;4.68;1.00;;;;;;;19.28;79.97;100795.34;7383532;19;20479;-76
2022/06/29 11:30:10;;;;;;;4.72;0.60;;;;;;;19.34;80.41;100782.00;7382121;19;20011;-76
2022/06/29 11:32:39;;;;;;;6.05;1.02;;;;;;;19.40;79.63;100788.34;7380794;19;20038;-76
2022/06/29 11:35:07;;;;;;;6.97;1.40;;;;;;;19.42;81.05;100779.06;7381523;19;20094;-75
2022/06/29 11:37:45;;;;;;;7.03;0.70;;;;;;;19.46;80.36;100782.16;7383769;19;20036;-78
2022/06/29 11:40:12;;;;;;;3.53;0.40;;;;;;;19.46;79.46;100784.84;7380699;19;20015;-75
2022/06/29 11:45:51;;;;;;;6.07;0.60;;;;;;;19.49;79.35;100779.09;7389334;19;20015;-74
2022/06/29 11:48:30;;;;;;;3.20;0.88;;;;;;;19.54;79.45;100780.09;7388313;19;20082;-76
2022/06/29 11:51:01;;;;;;;3.08;0.70;;;;;;;19.52;77.66;100775.97;7387455;19;20034;-74
2022/06/29 11:53:47;;;;;;;5.10;0.50;;;;;;;19.60;79.22;100775.75;7387715;19;20086;-76
2022/06/29 11:56:23;;;;;;;3.05;0.50;;;;;;;19.65;77.18;100762.59;7389001;19;20019;-75
2022/06/29 11:58:51;;;;;;;2.85;0.75;;;;;;;19.74;78.42;100769.31;7389123;19;20010;-75